LGKV/KVA METAR and TAF weather

Enter ICAO airport designator
Station Type Date Time Source
LGKV METAR 2022/12/03 17:50 UTC NOAA

LGKV 031750Z 03004KT 9999 FEW018 10/08 Q1026


Station Type Date Time Source
LGKV Decoded METAR 2022/12/03 17:50 UTC NOAA

Chrysoupoli Airport , Greece (LGKV) 40-59N 024-36E 5M
Dec 03, 2022 - 12:50 PM EST / 2022.12.03 1750 UTC
Wind: from the NNE (030 degrees) at 5 MPH (4 KT):0
Visibility: greater than 7 mile(s):0
Sky conditions: mostly clear
Temperature: 50 F (10 C)
Dew Point: 46 F (8 C)
Relative Humidity: 87%
Pressure (altimeter): 30.30 in. Hg (1026 hPa)
ob: LGKV 031750Z 03004KT 9999 FEW018 10/08 Q1026
cycle: 18

Station Type Date Time Source
LGKV TAF 2022/12/03 18:12 UTC NOAA

TAF LGKV 031700Z 0318/0418 06008KT 9999 FEW010 BKN025
BECMG 0414/0416 FEW010 BKN025 BKN070

Example: see airport list